Time;durP1;ratioP1;P1;durP2;ratioP2;P2;SDS_P1;SDS_P2;PMS_P1;PMS_P2;Temp;Humidity;BMP_temperature;BMP_pressure;BME280_temperature;BME280_humidity;BME280_pressure;Samples;Min_cycle;Max_cycle;Signal;HPM_P1;HPM_P2
2023/05/20 00:01:22;;;;;;;5.70;2.30;;;;;;;16.13;49.01;102554.03;5002713;28;20042;-39
2023/05/20 00:03:48;;;;;;;4.70;2.53;;;;;;;16.07;48.74;102552.56;4996425;28;20034;-39
2023/05/20 00:06:13;;;;;;;4.63;2.60;;;;;;;16.04;48.91;102554.50;4993552;28;20440;-40
2023/05/20 00:08:39;;;;;;;5.72;2.60;;;;;;;16.03;48.97;102545.69;4996061;28;20999;-39
2023/05/20 00:11:12;;;;;;;7.70;2.80;;;;;;;15.97;48.90;102551.31;5002357;28;20038;-40
2023/05/20 00:13:42;;;;;;;7.53;2.83;;;;;;;15.91;49.11;102549.84;4978367;28;20038;-39
2023/05/20 00:16:07;;;;;;;6.30;2.55;;;;;;;15.84;49.18;102543.13;4989192;28;20038;-39
2023/05/20 00:18:35;;;;;;;4.68;2.47;;;;;;;15.77;49.48;102539.91;4984539;28;20061;-39
2023/05/20 00:21:06;;;;;;;3.53;1.75;;;;;;;15.70;49.72;102539.38;4980448;28;20037;-39
2023/05/20 00:23:33;;;;;;;5.90;3.08;;;;;;;15.69;49.71;102540.31;4979001;28;20045;-39
2023/05/20 00:25:59;;;;;;;7.85;2.50;;;;;;;15.68;49.62;102543.91;4981826;28;20505;-39
2023/05/20 00:28:29;;;;;;;8.55;2.85;;;;;;;15.68;49.61;102540.38;4985300;28;20053;-39
2023/05/20 00:30:54;;;;;;;5.38;2.55;;;;;;;15.67;49.65;102541.31;4988550;28;20141;-39
2023/05/20 00:33:20;;;;;;;5.07;2.53;;;;;;;15.63;49.84;102534.47;5008113;23;21354;-41
2023/05/20 00:35:45;;;;;;;5.45;2.58;;;;;;;15.61;49.81;102536.31;5001358;28;20656;-40
2023/05/20 00:38:11;;;;;;;5.78;2.67;;;;;;;15.57;49.88;102543.59;4995158;28;20032;-39
2023/05/20 00:40:36;;;;;;;5.20;2.50;;;;;;;15.55;50.07;102541.00;4986504;28;20048;-40
2023/05/20 00:43:01;;;;;;;5.13;2.55;;;;;;;15.57;50.02;102542.72;4986266;28;20034;-41
2023/05/20 00:45:27;;;;;;;7.55;2.67;;;;;;;15.58;50.01;102541.78;4978540;28;20026;-40
2023/05/20 00:47:56;;;;;;;8.57;2.60;;;;;;;15.55;50.04;102535.69;4991073;28;20213;-40
2023/05/20 00:50:21;;;;;;;5.35;2.38;;;;;;;15.50;50.02;102537.72;4977801;28;20034;-41
2023/05/20 00:52:50;;;;;;;10.15;2.70;;;;;;;15.45;50.22;102536.22;4985787;28;20046;-40
2023/05/20 00:55:15;;;;;;;5.25;2.65;;;;;;;15.42;50.31;102537.25;4972577;28;20038;-40
2023/05/20 00:57:41;;;;;;;5.05;2.67;;;;;;;15.42;50.38;102534.59;4983833;28;20033;-40
2023/05/20 01:00:09;;;;;;;7.20;2.60;;;;;;;15.41;50.33;102540.84;4985046;28;20046;-39
2023/05/20 01:02:34;;;;;;;6.78;2.53;;;;;;;15.36;50.49;102548.16;4987131;28;20029;-40
2023/05/20 01:05:00;;;;;;;6.85;2.60;;;;;;;15.35;50.54;102534.03;4989770;28;20030;-41
2023/05/20 01:07:25;;;;;;;7.38;3.15;;;;;;;15.35;50.51;102538.50;4976290;28;20034;-40
2023/05/20 01:09:53;;;;;;;5.03;1.50;;;;;;;15.34;50.46;102536.78;4987135;28;20494;-40
2023/05/20 01:12:28;;;;;;;8.55;2.85;;;;;;;15.35;50.64;102527.88;4983882;28;20088;-40
2023/05/20 01:15:00;;;;;;;4.28;2.38;;;;;;;15.31;50.52;102527.16;4986285;28;20034;-41
2023/05/20 01:17:31;;;;;;;4.22;2.58;;;;;;;15.29;50.55;102518.41;4986549;28;20038;-40
2023/05/20 01:19:58;;;;;;;10.48;2.95;;;;;;;15.24;50.51;102523.97;4986936;28;20026;-40
2023/05/20 01:22:28;;;;;;;7.45;2.83;;;;;;;15.19;50.69;102523.34;4981107;28;20067;-40
2023/05/20 01:24:54;;;;;;;5.90;3.05;;;;;;;15.17;50.74;102525.22;4982865;28;20057;-40
2023/05/20 01:27:23;;;;;;;8.73;3.20;;;;;;;15.14;50.66;102537.72;4977406;28;20033;-40
2023/05/20 01:29:50;;;;;;;6.07;2.58;;;;;;;15.12;50.80;102532.50;4963880;28;20488;-41
2023/05/20 01:32:22;;;;;;;6.68;3.08;;;;;;;15.12;50.95;102539.63;4984911;28;20037;-40
2023/05/20 01:34:49;;;;;;;10.45;3.42;;;;;;;15.07;50.93;102530.09;4984258;28;20034;-40
2023/05/20 01:37:17;;;;;;;5.78;2.85;;;;;;;15.05;51.01;102531.13;4986603;28;20444;-41
2023/05/20 01:39:43;;;;;;;7.45;2.95;;;;;;;14.96;51.17;102532.41;4986009;28;20026;-41
2023/05/20 01:42:09;;;;;;;5.43;2.80;;;;;;;14.87;51.38;102541.66;4986332;28;20032;-41
2023/05/20 01:44:35;;;;;;;6.63;3.20;;;;;;;14.87;51.61;102532.81;4984288;28;20125;-40
2023/05/20 01:47:01;;;;;;;7.40;2.80;;;;;;;14.83;51.63;102540.06;4984227;28;20117;-40
2023/05/20 01:49:27;;;;;;;9.82;3.00;;;;;;;14.85;51.55;102540.88;4988198;28;20034;-41
2023/05/20 01:51:52;;;;;;;6.15;3.03;;;;;;;14.84;51.79;102532.97;4987457;28;20041;-39
2023/05/20 01:54:18;;;;;;;6.22;2.80;;;;;;;14.81;51.70;102533.13;4986395;28;20602;-39
2023/05/20 01:56:45;;;;;;;6.38;3.03;;;;;;;14.81;51.77;102533.97;4989410;28;20038;-39
2023/05/20 01:59:10;;;;;;;5.25;2.67;;;;;;;14.79;51.91;102530.53;4983217;28;20405;-40
2023/05/20 02:01:36;;;;;;;5.57;2.58;;;;;;;14.67;52.01;102525.78;4985663;28;20528;-39
2023/05/20 02:04:01;;;;;;;11.25;4.43;;;;;;;14.74;51.93;102528.13;4987101;28;20125;-41
2023/05/20 02:06:27;;;;;;;5.70;3.88;;;;;;;14.75;52.02;102531.59;4986672;28;20030;-41
2023/05/20 02:08:52;;;;;;;5.97;2.40;;;;;;;14.76;52.06;102525.38;4979297;28;20031;-40
2023/05/20 02:11:18;;;;;;;6.45;2.78;;;;;;;14.72;52.02;102526.47;4985026;28;20030;-40
2023/05/20 02:13:43;;;;;;;7.13;3.22;;;;;;;14.63;52.18;102520.63;4992135;28;20420;-40
2023/05/20 02:16:08;;;;;;;5.45;2.72;;;;;;;14.66;52.07;102513.47;4987637;28;20038;-41
2023/05/20 02:18:34;;;;;;;5.82;2.70;;;;;;;14.61;52.43;102516.34;4985560;28;20539;-39
2023/05/20 02:21:03;;;;;;;6.72;2.75;;;;;;;14.64;52.19;102516.22;4988235;28;20034;-41
2023/05/20 02:23:32;;;;;;;6.65;2.78;;;;;;;14.68;52.27;102516.94;4985305;28;20026;-40
2023/05/20 02:25:57;;;;;;;5.63;2.45;;;;;;;14.66;52.29;102508.16;4985430;28;20034;-40
2023/05/20 02:28:22;;;;;;;5.53;3.13;;;;;;;14.66;51.98;102508.16;4986963;28;20618;-40
2023/05/20 02:30:50;;;;;;;8.13;3.25;;;;;;;14.63;52.24;102515.31;4986388;28;20050;-40
2023/05/20 02:33:16;;;;;;;12.82;3.65;;;;;;;14.57;52.28;102518.28;4984486;28;20399;-41
2023/05/20 02:35:41;;;;;;;5.20;2.63;;;;;;;14.48;52.44;102514.28;4981338;28;20507;-40
2023/05/20 02:38:07;;;;;;;6.10;2.88;;;;;;;14.51;52.17;102515.06;4983697;28;20057;-41
2023/05/20 02:40:33;;;;;;;9.70;3.63;;;;;;;14.50;52.51;102514.19;4984379;28;20073;-40
2023/05/20 02:42:59;;;;;;;4.93;2.70;;;;;;;14.46;52.52;102518.78;4988870;28;20034;-39
2023/05/20 02:45:24;;;;;;;5.93;2.65;;;;;;;14.38;52.66;102514.75;4987617;28;20065;-40
2023/05/20 02:47:50;;;;;;;5.53;2.85;;;;;;;14.32;52.75;102521.19;4991188;28;20073;-39
2023/05/20 02:50:15;;;;;;;6.40;2.72;;;;;;;14.26;52.99;102517.03;4986887;28;20026;-40
2023/05/20 02:52:41;;;;;;;5.97;3.00;;;;;;;14.22;53.15;102518.09;4985095;28;20041;-41
2023/05/20 02:55:07;;;;;;;7.18;3.05;;;;;;;14.21;53.21;102519.03;4985776;28;20459;-39
2023/05/20 02:57:36;;;;;;;8.35;2.55;;;;;;;14.21;53.09;102519.03;4983025;28;20041;-40
2023/05/20 03:00:06;;;;;;;6.35;3.10;;;;;;;14.22;53.14;102520.75;4988246;28;20044;-40
2023/05/20 03:02:32;;;;;;;5.88;2.53;;;;;;;14.15;53.27;102517.50;4989941;28;20481;-39
2023/05/20 03:04:58;;;;;;;3.95;2.42;;;;;;;14.12;53.57;102516.78;4988787;28;20031;-40
2023/05/20 03:07:24;;;;;;;5.43;3.05;;;;;;;14.13;53.57;102521.16;4989276;28;20085;-41
2023/05/20 03:09:49;;;;;;;4.28;1.73;;;;;;;14.10;53.59;102514.19;4984813;28;20116;-39
2023/05/20 03:12:15;;;;;;;6.05;2.42;;;;;;;14.15;53.68;102519.28;4987720;28;20034;-39
2023/05/20 03:14:40;;;;;;;5.35;2.78;;;;;;;14.14;53.43;102520.25;4987748;28;20412;-39
2023/05/20 03:17:06;;;;;;;4.38;2.17;;;;;;;14.13;53.83;102531.75;4988103;28;20046;-39
2023/05/20 03:19:31;;;;;;;5.72;2.35;;;;;;;14.13;53.65;102537.06;4982804;28;20023;-40
2023/05/20 03:21:57;;;;;;;5.15;2.33;;;;;;;14.14;53.77;102528.19;4988229;28;20504;-39
2023/05/20 03:24:22;;;;;;;5.70;2.58;;;;;;;14.16;53.78;102529.81;4984786;28;20042;-39
2023/05/20 03:26:48;;;;;;;5.13;2.58;;;;;;;14.14;53.72;102526.38;4988175;28;20046;-40
2023/05/20 03:29:13;;;;;;;6.50;2.53;;;;;;;14.16;54.01;102521.88;4986662;28;20077;-40
2023/05/20 03:31:39;;;;;;;4.57;1.95;;;;;;;14.20;53.92;102522.59;4984389;28;20030;-39
2023/05/20 03:34:04;;;;;;;5.03;2.38;;;;;;;14.15;54.11;102525.47;4984047;28;20513;-39
2023/05/20 03:36:30;;;;;;;8.52;2.50;;;;;;;14.13;53.94;102527.31;4986131;28;20484;-39
2023/05/20 03:38:55;;;;;;;8.85;2.40;;;;;;;14.12;54.22;102536.16;4985156;28;20512;-41
2023/05/20 03:41:21;;;;;;;4.15;2.15;;;;;;;14.16;54.27;102534.25;4983868;28;20118;-39
2023/05/20 03:43:46;;;;;;;4.40;2.45;;;;;;;14.17;54.22;102528.03;4983767;28;20038;-40
2023/05/20 03:46:12;;;;;;;9.18;5.90;;;;;;;14.19;54.09;102536.75;4985462;28;20046;-41
2023/05/20 03:48:37;;;;;;;11.75;6.00;;;;;;;14.22;54.15;102541.94;4989093;28;20420;-42
2023/05/20 03:51:03;;;;;;;11.43;2.78;;;;;;;14.21;54.38;102542.00;4986232;28;20045;-40
2023/05/20 03:53:28;;;;;;;7.13;2.08;;;;;;;14.27;54.31;102539.06;4988981;28;20026;-40
2023/05/20 03:55:54;;;;;;;9.68;2.60;;;;;;;14.30;54.22;102550.38;4982707;28;20641;-40
2023/05/20 03:58:22;;;;;;;6.97;2.47;;;;;;;14.32;54.35;102545.88;4989349;28;20117;-40
2023/05/20 04:00:48;;;;;;;5.45;2.83;;;;;;;14.32;54.28;102550.31;4986586;28;20492;-41
2023/05/20 04:03:14;;;;;;;8.90;3.80;;;;;;;14.31;54.39;102546.78;4986117;28;20080;-39
2023/05/20 04:05:40;;;;;;;4.53;2.13;;;;;;;14.28;54.55;102544.31;4987590;28;20026;-39
2023/05/20 04:08:05;;;;;;;7.03;3.20;;;;;;;14.28;54.58;102543.44;4986089;28;20397;-39
2023/05/20 04:10:33;;;;;;;5.38;2.28;;;;;;;14.32;54.63;102543.22;4979828;28;20042;-39
2023/05/20 04:12:59;;;;;;;15.30;8.10;;;;;;;14.37;54.59;102550.09;4984280;28;20088;-41
2023/05/20 04:15:24;;;;;;;8.68;4.68;;;;;;;14.37;54.67;102545.66;4987921;28;20030;-40
2023/05/20 04:17:51;;;;;;;5.43;2.65;;;;;;;14.41;54.47;102543.75;4987892;28;20064;-41
2023/05/20 04:20:17;;;;;;;4.88;2.53;;;;;;;14.42;54.64;102546.31;4985134;28;20053;-41
2023/05/20 04:22:47;;;;;;;5.15;2.28;;;;;;;14.42;54.60;102546.31;4984893;28;20049;-41
2023/05/20 04:25:12;;;;;;;4.43;2.58;;;;;;;14.43;54.66;102545.38;4982604;28;20030;-41
2023/05/20 04:27:38;;;;;;;5.75;2.53;;;;;;;14.45;54.81;102553.25;4987940;28;20068;-41
2023/05/20 04:30:05;;;;;;;5.45;2.40;;;;;;;14.45;54.63;102553.25;4982920;28;20034;-41
2023/05/20 04:32:33;;;;;;;7.65;2.63;;;;;;;14.45;54.74;102551.47;4986237;28;20511;-41
2023/05/20 04:35:00;;;;;;;4.63;2.58;;;;;;;14.48;54.77;102561.06;4985206;28;20088;-40
2023/05/20 04:37:26;;;;;;;7.50;2.63;;;;;;;14.52;54.85;102554.72;4986310;28;20029;-40
2023/05/20 04:39:51;;;;;;;3.60;2.10;;;;;;;14.54;54.70;102552.84;4983030;28;20026;-39
2023/05/20 04:42:20;;;;;;;6.68;3.17;;;;;;;14.57;54.69;102559.78;4988860;28;20052;-39
2023/05/20 04:44:47;;;;;;;7.63;3.60;;;;;;;14.58;54.50;102551.78;4983609;28;20038;-39
2023/05/20 04:47:13;;;;;;;6.25;2.67;;;;;;;14.60;54.80;102555.19;4979573;28;20046;-40
2023/05/20 04:49:39;;;;;;;5.30;2.42;;;;;;;14.58;54.81;102554.44;4979538;28;20464;-40
2023/05/20 04:52:04;;;;;;;5.40;2.90;;;;;;;14.58;55.07;102562.38;4986522;28;20126;-39
2023/05/20 04:54:31;;;;;;;5.00;2.60;;;;;;;14.58;55.04;102559.75;4986030;28;20038;-40
2023/05/20 04:56:57;;;;;;;4.55;2.50;;;;;;;14.58;55.09;102553.56;4985233;28;20030;-40
2023/05/20 04:59:22;;;;;;;4.13;2.60;;;;;;;14.59;55.09;102561.47;4984942;28;20509;-40
2023/05/20 05:01:48;;;;;;;4.85;2.78;;;;;;;14.61;55.07;102559.56;4984526;28;20044;-40
2023/05/20 05:04:13;;;;;;;8.27;2.80;;;;;;;14.64;55.20;102559.44;4981243;28;20042;-40
2023/05/20 05:06:39;;;;;;;8.43;2.55;;;;;;;14.64;54.99;102558.59;4966508;28;20027;-40
2023/05/20 05:09:04;;;;;;;7.10;2.38;;;;;;;14.69;55.07;102569.84;4986175;28;20092;-40
2023/05/20 05:11:30;;;;;;;8.40;2.05;;;;;;;14.70;55.08;102560.13;4987116;28;20069;-39
2023/05/20 05:13:55;;;;;;;4.10;2.45;;;;;;;14.72;54.97;102560.94;4983904;28;20030;-39
2023/05/20 05:16:21;;;;;;;5.28;3.15;;;;;;;14.76;55.01;102568.66;4985847;28;20026;-40
2023/05/20 05:18:46;;;;;;;6.55;2.65;;;;;;;14.78;55.08;102565.91;4981277;28;20034;-40
2023/05/20 05:21:12;;;;;;;4.85;2.72;;;;;;;14.75;55.18;102566.06;4998796;28;20061;-39
2023/05/20 05:23:37;;;;;;;5.45;2.50;;;;;;;14.74;55.13;102562.56;4985574;28;20029;-39
2023/05/20 05:26:03;;;;;;;4.38;2.47;;;;;;;14.80;55.16;102565.88;4981572;28;20093;-41
2023/05/20 05:28:28;;;;;;;4.10;2.35;;;;;;;14.82;54.94;102567.50;4984251;28;20034;-41
2023/05/20 05:30:55;;;;;;;4.60;2.47;;;;;;;14.80;55.42;102564.06;4983517;28;20046;-41
2023/05/20 05:33:21;;;;;;;4.78;2.67;;;;;;;14.80;55.43;102563.22;4980854;28;20058;-39
2023/05/20 05:35:46;;;;;;;6.90;2.58;;;;;;;14.78;55.47;102571.22;4986234;28;20038;-40
2023/05/20 05:38:12;;;;;;;6.50;2.83;;;;;;;14.78;55.62;102565.91;4983693;28;20033;-39
2023/05/20 05:40:37;;;;;;;5.68;2.95;;;;;;;14.78;55.65;102557.97;4979337;28;20114;-40
2023/05/20 05:43:03;;;;;;;5.03;2.53;;;;;;;14.80;55.56;102561.41;4987480;28;20033;-41
2023/05/20 05:45:28;;;;;;;6.47;2.40;;;;;;;14.82;55.83;102556.91;4982967;28;20038;-39
2023/05/20 05:47:54;;;;;;;4.00;2.17;;;;;;;14.83;55.81;102560.41;4984124;28;20113;-40
2023/05/20 05:50:19;;;;;;;4.97;2.90;;;;;;;14.85;55.82;102554.13;4981507;28;20051;-39
2023/05/20 05:52:45;;;;;;;7.35;4.80;;;;;;;14.91;55.63;102553.81;4986814;28;20438;-41
2023/05/20 05:55:11;;;;;;;9.63;2.92;;;;;;;14.94;55.87;102550.16;4984106;28;20037;-41
2023/05/20 05:57:37;;;;;;;7.38;2.85;;;;;;;14.97;55.73;102554.47;4990169;28;20022;-40
2023/05/20 06:00:03;;;;;;;6.25;3.63;;;;;;;14.99;55.95;102557.91;4989324;28;20085;-40
2023/05/20 06:02:29;;;;;;;4.95;3.05;;;;;;;15.03;55.84;102556.84;4990904;28;20485;-41
2023/05/20 06:04:54;;;;;;;7.55;3.60;;;;;;;15.04;56.21;102551.44;4990068;28;20121;-41
2023/05/20 06:07:20;;;;;;;6.32;3.15;;;;;;;15.06;55.99;102554.88;4988630;28;20126;-40
2023/05/20 06:09:45;;;;;;;6.20;2.70;;;;;;;15.06;56.08;102548.72;4986080;28;20034;-40
2023/05/20 06:12:11;;;;;;;4.75;2.50;;;;;;;15.07;56.45;102550.44;4988898;28;20031;-41
2023/05/20 06:14:36;;;;;;;4.00;2.28;;;;;;;15.11;56.29;102541.41;4986711;28;20030;-40
2023/05/20 06:17:04;;;;;;;5.28;3.00;;;;;;;15.12;56.29;102537.81;4985308;28;20061;-41
2023/05/20 06:19:30;;;;;;;5.63;3.03;;;;;;;15.13;56.37;102541.31;4986252;28;20026;-41
2023/05/20 06:21:57;;;;;;;4.28;1.70;;;;;;;15.14;56.44;102535.06;4990425;28;20034;-40
2023/05/20 06:24:22;;;;;;;7.75;2.95;;;;;;;15.18;56.41;102534.00;4985670;28;20145;-41
2023/05/20 06:26:49;;;;;;;5.68;2.53;;;;;;;15.20;56.41;102537.44;4991242;28;20092;-40
2023/05/20 06:29:14;;;;;;;4.47;2.90;;;;;;;15.23;56.34;102535.50;4989373;28;20113;-40
2023/05/20 06:31:40;;;;;;;13.10;3.63;;;;;;;15.26;56.52;102538.94;4989003;28;20153;-41
2023/05/20 06:34:05;;;;;;;7.20;4.00;;;;;;;15.28;56.39;102548.53;4986806;28;20117;-40
2023/05/20 06:36:31;;;;;;;6.53;2.97;;;;;;;15.33;56.57;102548.31;4989387;28;20424;-40
2023/05/20 06:38:56;;;;;;;15.20;4.18;;;;;;;15.34;56.63;102555.34;4988055;28;20054;-41
2023/05/20 06:41:22;;;;;;;6.63;3.22;;;;;;;15.37;56.67;102561.34;4986645;28;20054;-41
2023/05/20 06:43:47;;;;;;;8.30;2.70;;;;;;;15.40;56.65;102547.06;4984212;28;20034;-42
2023/05/20 06:46:12;;;;;;;8.93;2.95;;;;;;;15.47;56.49;102555.56;4986525;28;20033;-38
2023/05/20 06:48:38;;;;;;;8.75;3.00;;;;;;;15.51;56.58;102543.88;4982676;28;20049;-40
2023/05/20 06:51:07;;;;;;;7.40;3.63;;;;;;;15.51;56.59;102544.72;4981179;28;20061;-43
2023/05/20 06:53:33;;;;;;;7.57;3.00;;;;;;;15.58;56.71;102541.78;4975629;28;20601;-41
2023/05/20 06:55:58;;;;;;;10.02;3.22;;;;;;;15.65;56.65;102548.50;4988237;28;20477;-43
2023/05/20 06:58:23;;;;;;;7.65;2.90;;;;;;;15.70;56.63;102546.47;4987157;28;20449;-40
2023/05/20 07:00:49;;;;;;;7.82;2.85;;;;;;;15.75;56.66;102541.78;4987869;28;20026;-41
2023/05/20 07:03:14;;;;;;;6.38;3.13;;;;;;;15.80;56.70;102533.59;4987781;28;20022;-41
2023/05/20 07:05:42;;;;;;;18.92;8.70;;;;;;;15.84;56.68;102528.03;4993045;23;20050;-40
2023/05/20 07:08:10;;;;;;;8.75;4.55;;;;;;;15.94;56.59;102535.56;4986216;28;20044;-39
2023/05/20 07:10:36;;;;;;;12.40;4.57;;;;;;;15.95;56.65;102521.38;4976256;28;20073;-40
2023/05/20 07:13:04;;;;;;;11.75;5.60;;;;;;;15.97;56.64;102516.81;4986683;28;20042;-39
2023/05/20 07:15:29;;;;;;;8.68;3.50;;;;;;;16.01;56.63;102507.75;4972208;28;20038;-39
2023/05/20 07:17:55;;;;;;;5.80;3.33;;;;;;;16.06;56.64;102504.84;4987954;28;20042;-39
2023/05/20 07:20:20;;;;;;;9.68;3.70;;;;;;;16.11;56.64;102503.66;4970718;28;20045;-40
2023/05/20 07:22:49;;;;;;;8.48;3.40;;;;;;;16.19;56.80;102502.41;4969246;28;20026;-40
2023/05/20 07:25:15;;;;;;;7.63;3.95;;;;;;;16.23;56.74;102506.63;4977534;28;20030;-40
2023/05/20 07:27:40;;;;;;;9.80;4.15;;;;;;;16.28;56.58;102502.78;4981642;28;20085;-40
2023/05/20 07:30:07;;;;;;;6.93;3.63;;;;;;;16.28;56.80;102496.59;4981672;28;20044;-38
2023/05/20 07:32:33;;;;;;;8.48;3.38;;;;;;;16.33;56.76;102483.91;4974606;28;20523;-39
2023/05/20 07:35:00;;;;;;;7.45;3.65;;;;;;;16.35;56.59;102487.34;4979478;28;20046;-38
2023/05/20 07:37:25;;;;;;;7.82;4.07;;;;;;;16.37;56.67;102488.13;4985986;28;20110;-38
2023/05/20 07:39:55;;;;;;;7.95;3.90;;;;;;;16.39;56.90;102486.25;4983571;28;20034;-38
2023/05/20 07:42:21;;;;;;;8.98;4.22;;;;;;;16.44;56.56;102491.31;4981540;28;20413;-39
2023/05/20 07:44:48;;;;;;;6.07;3.30;;;;;;;16.50;56.55;102490.13;4977998;28;20476;-40
2023/05/20 07:47:14;;;;;;;8.82;3.90;;;;;;;16.51;56.63;102491.81;4980847;28;20057;-38
2023/05/20 07:49:39;;;;;;;7.60;3.90;;;;;;;16.54;56.77;102496.97;4979886;28;20029;-38
2023/05/20 07:52:05;;;;;;;10.93;6.13;;;;;;;16.56;56.81;102492.44;4981046;28;20033;-40
2023/05/20 07:54:30;;;;;;;21.00;10.65;;;;;;;16.59;56.75;102498.44;4966833;28;20053;-39
2023/05/20 07:56:56;;;;;;;22.58;11.13;;;;;;;16.65;56.58;102493.69;4965736;28;20498;-38
2023/05/20 07:59:21;;;;;;;11.60;4.82;;;;;;;16.69;56.68;102492.59;4964222;28;20029;-39
2023/05/20 08:01:46;;;;;;;10.15;4.03;;;;;;;16.72;56.73;102490.63;4984062;28;20060;-38
2023/05/20 08:04:12;;;;;;;12.38;4.20;;;;;;;16.74;56.65;102498.53;4977661;28;20455;-39
2023/05/20 08:06:38;;;;;;;6.57;3.97;;;;;;;16.76;56.57;102504.63;4964295;28;20398;-39
2023/05/20 08:09:04;;;;;;;8.85;3.60;;;;;;;16.77;56.57;102488.56;4979744;28;20026;-39
2023/05/20 08:11:29;;;;;;;8.07;3.80;;;;;;;16.77;56.71;102499.19;4961165;28;20038;-39
2023/05/20 08:13:55;;;;;;;9.75;3.90;;;;;;;16.78;56.56;102489.44;4981534;28;20108;-38
2023/05/20 08:16:20;;;;;;;10.32;4.45;;;;;;;16.81;56.59;102485.75;4966628;28;20038;-38
2023/05/20 08:18:46;;;;;;;8.50;4.95;;;;;;;16.84;56.37;102482.91;4976508;28;20034;-38
2023/05/20 08:21:12;;;;;;;10.80;4.35;;;;;;;16.84;56.50;102482.91;4977753;28;20412;-38
2023/05/20 08:23:38;;;;;;;13.40;6.97;;;;;;;16.85;56.58;102484.63;4969970;28;20531;-38
2023/05/20 08:26:03;;;;;;;11.63;3.88;;;;;;;16.89;56.70;102486.16;4975392;28;20117;-39
2023/05/20 08:28:35;;;;;;;10.50;3.92;;;;;;;16.91;56.68;102478.94;4974102;28;21430;-38
2023/05/20 08:31:01;;;;;;;;;;;;;;;16.91;57.19;102474.50;4973920;28;20030;-39
2023/05/20 08:33:26;;;;;;;8.75;4.15;;;;;;;16.97;56.47;102475.09;4962055;28;19941;-38
2023/05/20 08:35:52;;;;;;;7.57;3.80;;;;;;;17.00;56.36;102481.13;4971261;28;20175;-38
2023/05/20 08:38:17;;;;;;;10.50;4.10;;;;;;;17.04;56.47;102487.97;4976557;28;20053;-39
2023/05/20 08:40:43;;;;;;;10.30;4.28;;;;;;;17.04;56.51;102489.78;4980877;28;20448;-38
2023/05/20 08:43:08;;;;;;;9.63;5.05;;;;;;;17.06;56.52;102485.22;4975734;28;20034;-39
2023/05/20 08:45:36;;;;;;;7.32;4.18;;;;;;;17.06;56.49;102485.22;4981661;28;20046;-39
2023/05/20 08:48:04;;;;;;;8.77;4.47;;;;;;;17.06;56.39;102493.22;4980852;28;20031;-38
2023/05/20 08:50:30;;;;;;;7.25;3.70;;;;;;;17.07;56.61;102500.25;4974129;28;20117;-39
2023/05/20 08:52:55;;;;;;;9.98;6.18;;;;;;;17.06;56.68;102490.56;4980592;28;20061;-38
2023/05/20 08:55:34;;;;;;;19.92;10.15;;;;;;;17.05;56.62;102489.69;4980716;28;20566;-39
2023/05/20 08:58:02;;;;;;;10.70;4.55;;;;;;;17.04;56.71;102490.63;4978138;28;20033;-38
2023/05/20 09:00:27;;;;;;;8.35;4.60;;;;;;;17.03;56.69;102488.91;4976124;28;20054;-38
2023/05/20 09:02:54;;;;;;;14.48;8.38;;;;;;;17.13;56.57;102493.72;4976882;28;20392;-39
2023/05/20 09:05:22;;;;;;;10.77;5.05;;;;;;;17.16;56.53;102498.84;4978993;28;20503;-40
2023/05/20 09:07:48;;;;;;;10.85;4.60;;;;;;;17.15;56.55;102486.50;4994889;28;20035;-38
2023/05/20 09:10:13;;;;;;;8.82;4.82;;;;;;;17.16;56.69;102485.56;4964969;28;20081;-38
2023/05/20 09:12:39;;;;;;;7.90;5.88;;;;;;;17.16;56.61;102477.59;4972068;28;20026;-38
2023/05/20 09:15:05;;;;;;;9.93;4.50;;;;;;;17.12;56.81;102484.00;4979392;28;20030;-38
2023/05/20 09:17:31;;;;;;;11.27;4.68;;;;;;;17.15;56.74;102482.03;4980299;28;20511;-38
2023/05/20 09:20:07;;;;;;;8.52;4.80;;;;;;;17.15;57.05;102482.03;4968776;28;20507;-38
2023/05/20 09:22:37;;;;;;;11.93;4.90;;;;;;;17.15;56.87;102481.19;4974760;28;20046;-38
2023/05/20 09:25:03;;;;;;;8.75;4.97;;;;;;;17.10;56.99;102480.59;4979281;28;20965;-38
2023/05/20 09:27:28;;;;;;;10.13;4.60;;;;;;;17.30;56.52;102480.28;4979401;28;20571;-38
2023/05/20 09:29:56;;;;;;;9.57;5.43;;;;;;;17.36;56.36;102479.91;4967030;28;20093;-38
2023/05/20 09:32:25;;;;;;;13.10;8.10;;;;;;;17.34;56.53;102476.47;4979920;28;20133;-39
2023/05/20 09:34:51;;;;;;;6.22;3.40;;;;;;;17.34;56.41;102480.97;4978504;28;20045;-39
2023/05/20 09:37:21;;;;;;;10.10;6.13;;;;;;;17.35;56.42;102478.19;4980025;28;20042;-39
2023/05/20 09:39:57;;;;;;;8.93;4.32;;;;;;;17.36;56.56;102485.22;4974633;28;20429;-40
2023/05/20 09:42:35;;;;;;;10.48;4.45;;;;;;;17.41;56.55;102476.13;4981240;28;20049;-39
2023/05/20 09:45:03;;;;;;;11.63;5.38;;;;;;;17.44;56.45;102475.94;4984286;28;20493;-39
2023/05/20 09:47:29;;;;;;;10.00;5.38;;;;;;;17.43;56.56;102474.25;4977901;28;21141;-39
2023/05/20 09:49:55;;;;;;;12.50;4.88;;;;;;;17.54;56.38;102461.13;4981110;28;20042;-39
2023/05/20 09:52:21;;;;;;;11.50;5.78;;;;;;;17.56;56.32;102464.56;4987922;28;20118;-39
2023/05/20 09:54:50;;;;;;;10.98;5.90;;;;;;;17.63;56.27;102454.41;4982919;28;20109;-39
2023/05/20 09:57:15;;;;;;;13.48;6.63;;;;;;;17.62;56.21;102461.50;4952218;28;20473;-40
2023/05/20 09:59:41;;;;;;;10.75;6.43;;;;;;;17.66;56.08;102460.38;4981843;28;20038;-40
2023/05/20 10:02:08;;;;;;;14.00;5.63;;;;;;;17.70;55.96;102469.03;4987649;28;20120;-39
2023/05/20 10:04:36;;;;;;;9.27;4.93;;;;;;;17.72;56.12;102464.47;4977602;28;20033;-40
2023/05/20 10:07:38;;;;;;;16.80;5.68;;;;;;;17.75;56.12;102464.31;4968994;28;20039;-39
2023/05/20 10:10:10;;;;;;;;;;;;;;;17.73;56.53;102468.03;4950728;28;20038;-40
2023/05/20 10:12:44;;;;;;;13.67;5.80;;;;;;;17.67;56.65;102470.09;4984559;28;20292;-37
2023/05/20 10:15:35;;;;;;;9.38;4.93;;;;;;;17.68;56.43;102468.31;4975251;28;20289;-40
2023/05/20 10:18:21;;;;;;;26.45;15.75;;;;;;;17.68;56.32;102470.97;4975754;28;20030;-40
2023/05/20 10:20:49;;;;;;;10.25;6.22;;;;;;;17.68;56.16;102465.63;4979085;28;20497;-40
2023/05/20 10:23:27;;;;;;;9.45;5.55;;;;;;;17.73;56.30;102454.72;4977377;28;20508;-41
2023/05/20 10:25:55;;;;;;;7.55;4.97;;;;;;;17.75;56.26;102463.47;4973228;28;20030;-40
2023/05/20 10:28:29;;;;;;;13.23;5.40;;;;;;;17.79;56.25;102452.53;4955036;28;20070;-38
2023/05/20 10:30:55;;;;;;;14.80;7.05;;;;;;;17.81;56.10;102447.09;4980121;28;20734;-38
2023/05/20 10:33:20;;;;;;;18.67;9.88;;;;;;;17.84;56.12;102446.91;4975745;28;20035;-37
2023/05/20 10:35:53;;;;;;;11.15;5.88;;;;;;;17.89;56.10;102450.16;4986450;28;20043;-37
2023/05/20 10:38:20;;;;;;;9.95;5.25;;;;;;;17.90;55.85;102446.53;4978438;28;20481;-39
2023/05/20 10:40:46;;;;;;;12.38;5.85;;;;;;;17.93;55.91;102449.00;4981158;28;20042;-38
2023/05/20 10:43:17;;;;;;;9.75;5.55;;;;;;;17.97;55.85;102453.22;4979425;28;20396;-39
2023/05/20 10:45:54;;;;;;;11.32;5.63;;;;;;;18.01;55.98;102447.69;4976855;28;20038;-39
2023/05/20 10:48:24;;;;;;;7.43;4.80;;;;;;;18.03;55.72;102445.81;4978473;28;20045;-39
2023/05/20 10:50:50;;;;;;;12.02;5.47;;;;;;;18.06;55.63;102440.28;4981836;28;20034;-39
2023/05/20 10:53:15;;;;;;;13.05;6.65;;;;;;;18.09;55.58;102432.09;4984235;28;20392;-39
2023/05/20 10:55:50;;;;;;;14.27;7.75;;;;;;;18.12;55.70;102437.22;4982936;28;20077;-39
2023/05/20 10:58:16;;;;;;;16.08;7.85;;;;;;;18.12;55.50;102435.44;4978638;28;20101;-41
2023/05/20 11:00:42;;;;;;;15.75;8.57;;;;;;;18.14;55.58;102427.34;4978076;28;20038;-41
2023/05/20 11:03:08;;;;;;;11.50;6.35;;;;;;;18.21;55.47;102431.34;4985140;28;20037;-40
2023/05/20 11:05:35;;;;;;;9.43;5.80;;;;;;;18.24;55.47;102428.44;4985349;28;20462;-40
2023/05/20 11:08:06;;;;;;;10.48;6.03;;;;;;;18.25;55.39;102426.66;4967442;28;20489;-40
2023/05/20 11:10:33;;;;;;;11.05;6.18;;;;;;;18.22;55.21;102425.06;4986469;28;20571;-40
2023/05/20 11:13:00;;;;;;;10.55;5.88;;;;;;;18.22;55.26;102425.06;4985632;28;20036;-41
2023/05/20 11:15:26;;;;;;;11.10;5.88;;;;;;;18.27;55.20;102417.59;4980203;28;20035;-39
2023/05/20 11:17:54;;;;;;;9.77;5.85;;;;;;;18.32;55.17;102408.47;4952763;28;20065;-40
2023/05/20 11:20:23;;;;;;;12.80;6.85;;;;;;;18.33;55.06;102410.19;4989427;28;20069;-40
2023/05/20 11:22:50;;;;;;;11.07;6.15;;;;;;;18.36;55.02;102402.84;4967191;28;20030;-40